createdAt,value
2019-03-13T00:00:59.219Z,8.80
2019-03-13T00:03:29.863Z,8.60
2019-03-13T00:06:00.026Z,8.40
2019-03-13T00:08:30.371Z,8.30
2019-03-13T00:11:00.908Z,8.30
2019-03-13T00:13:33.926Z,8.20
2019-03-13T00:16:04.542Z,8.00
2019-03-13T00:18:36.481Z,8.00
2019-03-13T00:21:07.059Z,7.80
2019-03-13T00:23:37.548Z,7.70
2019-03-13T00:26:09.510Z,7.50
2019-03-13T00:28:39.842Z,7.60
2019-03-13T00:31:10.099Z,7.60
2019-03-13T00:33:40.362Z,7.50
2019-03-13T00:36:10.701Z,7.50
2019-03-13T00:38:41.005Z,7.50
2019-03-13T00:41:11.402Z,7.40
2019-03-13T00:43:41.678Z,7.40
2019-03-13T00:46:12.119Z,7.30
2019-03-13T00:48:45.755Z,7.30
2019-03-13T00:51:17.498Z,7.30
2019-03-13T00:53:47.697Z,7.40
2019-03-13T00:56:18.264Z,7.40
2019-03-13T00:58:48.855Z,7.20
2019-03-13T01:01:38.095Z,7.10
2019-03-13T01:04:30.308Z,7.10
2019-03-13T01:07:06.029Z,7.00
2019-03-13T01:09:36.237Z,6.80
2019-03-13T01:12:07.641Z,6.90
2019-03-13T01:14:40.811Z,6.80
2019-03-13T01:17:11.058Z,6.90
2019-03-13T01:19:42.418Z,6.90
2019-03-13T01:22:12.933Z,6.80
2019-03-13T01:24:43.307Z,6.80
2019-03-13T01:27:13.665Z,6.80
2019-03-13T01:29:46.435Z,6.90
2019-03-13T01:32:38.843Z,6.80
2019-03-13T01:35:34.207Z,6.80
2019-03-13T01:38:04.859Z,6.70
2019-03-13T01:40:35.201Z,6.60
2019-03-13T01:43:05.815Z,6.90
2019-03-13T01:45:36.097Z,6.90
2019-03-13T01:48:06.510Z,6.80
2019-03-13T01:50:36.937Z,6.70
2019-03-13T01:53:07.443Z,6.70
2019-03-13T01:55:37.803Z,6.70
2019-03-13T01:58:08.527Z,6.90
2019-03-13T02:00:38.728Z,6.80
2019-03-13T02:03:09.239Z,6.70
2019-03-13T02:05:39.818Z,6.60
2019-03-13T02:08:10.101Z,6.60
2019-03-13T02:10:40.397Z,6.60
2019-03-13T02:13:10.787Z,6.70
2019-03-13T02:15:41.614Z,6.60
2019-03-13T02:18:12.675Z,6.70
2019-03-13T02:20:42.963Z,6.60
2019-03-13T02:23:13.329Z,6.70
2019-03-13T02:25:43.627Z,6.80
2019-03-13T02:28:13.987Z,6.80
2019-03-13T02:30:44.402Z,6.50
2019-03-13T02:33:15.014Z,6.70
2019-03-13T02:35:45.388Z,6.60
2019-03-13T02:38:15.757Z,6.70
2019-03-13T02:40:46.040Z,6.60
2019-03-13T02:43:18.534Z,6.70
2019-03-13T02:45:48.797Z,6.60
2019-03-13T02:48:19.083Z,6.70
2019-03-13T02:50:49.340Z,6.70
2019-03-13T02:53:19.845Z,6.60
2019-03-13T02:55:50.394Z,6.50
2019-03-13T02:58:20.654Z,6.50
2019-03-13T03:01:19.197Z,6.50
2019-03-13T03:03:53.341Z,6.50
2019-03-13T03:06:25.240Z,6.50
2019-03-13T03:08:56.635Z,6.50
2019-03-13T03:11:27.005Z,6.60
2019-03-13T03:13:57.213Z,6.50
2019-03-13T03:16:27.393Z,6.40
2019-03-13T03:18:57.772Z,6.30
2019-03-13T03:21:27.971Z,6.40
2019-03-13T03:23:58.452Z,6.20
2019-03-13T03:26:29.002Z,6.20
2019-03-13T03:29:00.056Z,6.30
2019-03-13T03:31:31.619Z,6.20
2019-03-13T03:34:03.161Z,6.30
2019-03-13T03:36:33.778Z,6.20
2019-03-13T03:39:05.669Z,6.20
2019-03-13T03:41:36.637Z,6.20
2019-03-13T03:44:07.441Z,6.30
2019-03-13T03:46:38.056Z,6.30
2019-03-13T03:49:08.369Z,6.20
2019-03-13T03:51:41.195Z,6.30
2019-03-13T03:54:11.438Z,6.20
2019-03-13T03:56:41.865Z,5.90
2019-03-13T03:59:14.314Z,6.30
2019-03-13T04:01:47.557Z,6.20
2019-03-13T04:04:18.098Z,6.20
2019-03-13T04:06:48.695Z,6.20
2019-03-13T04:09:19.001Z,6.20
2019-03-13T04:11:49.347Z,6.20
2019-03-13T04:14:19.722Z,6.20
2019-03-13T04:16:49.971Z,6.30
2019-03-13T04:19:20.329Z,6.30
2019-03-13T04:21:50.607Z,6.30
2019-03-13T04:24:20.922Z,6.30
2019-03-13T04:26:52.428Z,6.30
2019-03-13T04:29:22.810Z,6.40
2019-03-13T04:31:53.472Z,6.30
2019-03-13T04:34:23.949Z,6.40
2019-03-13T04:36:54.560Z,6.40
2019-03-13T04:39:24.874Z,6.40
2019-03-13T04:41:55.428Z,6.30
2019-03-13T04:44:26.224Z,6.30
2019-03-13T04:46:56.482Z,6.40
2019-03-13T04:49:27.224Z,6.40
2019-03-13T04:51:57.816Z,6.30
2019-03-13T04:54:28.343Z,6.50
2019-03-13T04:56:58.952Z,6.30
2019-03-13T04:59:29.524Z,6.40
2019-03-13T05:02:01.592Z,6.40
2019-03-13T05:04:32.040Z,6.40
2019-03-13T05:07:05.956Z,6.40
2019-03-13T05:09:38.630Z,6.50
2019-03-13T05:12:08.844Z,6.50
2019-03-13T05:14:40.377Z,6.60
2019-03-13T05:17:10.630Z,6.60
2019-03-13T05:19:41.000Z,6.60
2019-03-13T05:22:15.050Z,6.70
2019-03-13T05:24:45.256Z,6.70
2019-03-13T05:27:16.726Z,6.70
2019-03-13T05:29:46.985Z,6.70
2019-03-13T05:32:17.308Z,6.70
2019-03-13T05:35:06.354Z,6.80
2019-03-13T05:37:36.657Z,6.70
2019-03-13T05:40:08.578Z,6.70
2019-03-13T05:42:38.846Z,6.70
2019-03-13T05:45:09.539Z,6.80
2019-03-13T05:47:40.132Z,6.70
2019-03-13T05:50:12.538Z,6.90
2019-03-13T05:52:43.930Z,6.80
2019-03-13T05:55:14.981Z,6.90
2019-03-13T05:57:45.614Z,6.90
2019-03-13T06:00:17.505Z,6.90
2019-03-13T06:02:48.159Z,6.90
2019-03-13T06:05:19.149Z,6.90
2019-03-13T06:07:49.664Z,7.00
2019-03-13T06:10:23.001Z,7.00
2019-03-13T06:12:53.879Z,7.00
2019-03-13T06:15:25.666Z,6.90
2019-03-13T06:17:56.353Z,7.00
2019-03-13T06:20:27.137Z,7.10
2019-03-13T06:22:57.805Z,7.10
2019-03-13T06:25:28.848Z,7.10
2019-03-13T06:28:00.474Z,7.10
2019-03-13T06:30:32.856Z,7.10
2019-03-13T06:33:05.760Z,7.10
2019-03-13T06:35:37.029Z,6.90
2019-03-13T06:38:08.136Z,7.10
2019-03-13T06:40:39.084Z,7.20
2019-03-13T06:43:09.936Z,7.00
2019-03-13T06:45:40.603Z,7.10
2019-03-13T06:48:14.389Z,7.00
2019-03-13T06:50:45.385Z,7.10
2019-03-13T06:53:16.391Z,7.00
2019-03-13T06:55:47.367Z,7.00
2019-03-13T06:58:19.855Z,7.20
2019-03-13T07:01:07.223Z,7.10
2019-03-13T07:03:47.867Z,7.00
2019-03-13T07:06:43.453Z,7.00
2019-03-13T07:09:31.909Z,7.10
2019-03-13T07:12:20.125Z,7.10
2019-03-13T07:15:14.751Z,6.90
2019-03-13T07:18:03.203Z,7.00
2019-03-13T07:20:51.564Z,7.00
2019-03-13T07:23:35.811Z,7.00
2019-03-13T07:26:32.425Z,7.00
2019-03-13T07:29:28.125Z,7.10
2019-03-13T07:32:17.863Z,7.10
2019-03-13T07:35:19.609Z,7.10
2019-03-13T07:38:12.087Z,7.10
2019-03-13T07:41:04.109Z,7.20
2019-03-13T07:43:56.749Z,7.20
2019-03-13T07:47:02.122Z,7.20
2019-03-13T07:50:07.191Z,7.40
2019-03-13T07:52:52.276Z,7.40
2019-03-13T07:55:53.805Z,7.30
2019-03-13T07:58:38.081Z,7.40
2019-03-13T08:01:27.192Z,7.50
2019-03-13T08:04:05.936Z,7.40
2019-03-13T08:07:04.553Z,7.30
2019-03-13T08:10:00.384Z,7.40
2019-03-13T08:13:05.030Z,7.50
2019-03-13T08:15:50.078Z,7.50
2019-03-13T08:18:32.854Z,7.70
2019-03-13T08:21:22.673Z,7.60
2019-03-13T08:24:12.338Z,7.50
2019-03-13T08:27:19.600Z,7.60
2019-03-13T08:30:03.403Z,7.60
2019-03-13T08:32:53.899Z,7.80
2019-03-13T08:35:53.011Z,7.80
2019-03-13T08:38:34.608Z,7.80
2019-03-13T08:41:27.363Z,7.90
2019-03-13T08:44:23.176Z,7.80
2019-03-13T08:47:14.957Z,7.70
2019-03-13T08:50:01.797Z,7.60
2019-03-13T08:52:50.449Z,7.70
2019-03-13T08:55:44.897Z,7.70
2019-03-13T08:58:49.816Z,7.90
2019-03-13T09:01:41.656Z,7.80
2019-03-13T09:04:34.936Z,7.70
2019-03-13T09:07:31.505Z,7.70
2019-03-13T09:10:22.618Z,7.70
2019-03-13T09:13:11.278Z,7.50
2019-03-13T09:15:51.943Z,7.70
2019-03-13T09:18:38.118Z,7.70
2019-03-13T09:21:33.665Z,7.80
2019-03-13T09:24:16.461Z,7.90
2019-03-13T09:26:55.045Z,8.00
2019-03-13T09:29:46.720Z,7.90
2019-03-13T09:32:40.610Z,7.80
2019-03-13T09:35:30.158Z,7.90
2019-03-13T09:38:32.275Z,8.00
2019-03-13T09:41:20.138Z,7.90
2019-03-13T09:44:02.269Z,8.00
2019-03-13T09:47:09.933Z,8.10
2019-03-13T09:50:04.979Z,8.20
2019-03-13T09:52:53.823Z,8.20
2019-03-13T09:55:46.553Z,8.20
2019-03-13T09:58:39.743Z,8.30
2019-03-13T10:01:35.059Z,8.20
2019-03-13T10:04:39.612Z,8.20
2019-03-13T10:07:32.096Z,8.20
2019-03-13T10:10:20.679Z,8.30
2019-03-13T10:13:08.669Z,8.20
2019-03-13T10:15:58.234Z,8.20
2019-03-13T10:18:49.480Z,8.40
2019-03-13T10:21:54.742Z,8.50
2019-03-13T10:24:33.231Z,8.40
2019-03-13T10:27:12.149Z,8.30
2019-03-13T10:29:58.270Z,8.30
2019-03-13T10:32:48.000Z,8.10
2019-03-13T10:35:40.757Z,8.20
2019-03-13T10:38:28.692Z,8.10
2019-03-13T10:41:24.385Z,8.10
2019-03-13T10:44:13.234Z,8.00
2019-03-13T10:46:51.581Z,7.90
2019-03-13T10:49:35.606Z,8.20
2019-03-13T10:52:24.280Z,8.10
2019-03-13T10:55:17.203Z,8.30
2019-03-13T10:58:15.358Z,8.10
2019-03-13T11:00:59.883Z,8.30
2019-03-13T11:03:47.223Z,8.40
2019-03-13T11:06:39.698Z,8.50
2019-03-13T11:09:27.167Z,8.50
2019-03-13T11:12:03.072Z,8.60
2019-03-13T11:14:52.034Z,8.70
2019-03-13T11:17:40.344Z,8.70
2019-03-13T11:20:27.844Z,8.50
2019-03-13T11:23:08.018Z,8.70
2019-03-13T11:26:00.558Z,8.70
2019-03-13T11:28:53.219Z,8.80
2019-03-13T11:31:52.304Z,8.80
2019-03-13T11:34:35.414Z,9.00
2019-03-13T11:37:31.062Z,8.90
2019-03-13T11:40:26.518Z,9.00
2019-03-13T11:43:21.470Z,9.10
2019-03-13T11:46:20.481Z,8.90
2019-03-13T11:49:02.827Z,8.50
2019-03-13T11:51:44.436Z,8.30
2019-03-13T11:54:23.970Z,8.20
2019-03-13T11:57:05.630Z,8.20
2019-03-13T11:59:45.112Z,8.30
2019-03-13T12:02:41.413Z,8.30
2019-03-13T12:05:30.086Z,8.10
2019-03-13T12:08:22.398Z,8.20
2019-03-13T12:11:11.997Z,8.10
2019-03-13T12:14:13.240Z,8.10
2019-03-13T12:17:03.062Z,8.20
2019-03-13T12:19:56.040Z,8.10
2019-03-13T12:22:34.232Z,8.20
2019-03-13T12:25:39.471Z,8.30
2019-03-13T12:28:24.700Z,8.00
2019-03-13T12:31:14.126Z,8.00
2019-03-13T12:34:22.426Z,8.10
2019-03-13T12:37:11.672Z,8.20
2019-03-13T12:40:04.682Z,8.20
2019-03-13T12:43:12.190Z,8.00
2019-03-13T12:45:58.252Z,8.20
2019-03-13T12:48:42.694Z,8.40
2019-03-13T12:51:30.420Z,8.40
2019-03-13T12:54:31.979Z,8.20
2019-03-13T12:57:27.210Z,8.30
2019-03-13T13:00:31.979Z,8.20
2019-03-13T13:03:20.184Z,8.30
2019-03-13T13:06:05.749Z,8.40
2019-03-13T13:09:00.895Z,8.40
2019-03-13T13:11:42.912Z,8.30
2019-03-13T13:14:44.666Z,8.40
2019-03-13T13:17:37.317Z,8.30
2019-03-13T13:20:09.867Z,8.40
2019-03-13T13:22:40.793Z,8.40
2019-03-13T13:25:11.434Z,8.40
2019-03-13T13:27:42.286Z,8.40
2019-03-13T13:30:13.909Z,8.40
2019-03-13T13:32:44.629Z,8.20
2019-03-13T13:35:15.063Z,8.40
2019-03-13T13:37:45.587Z,8.40
2019-03-13T13:40:16.345Z,8.30
2019-03-13T13:42:46.966Z,8.60
2019-03-13T13:45:39.802Z,8.50
2019-03-13T13:48:10.546Z,8.60
2019-03-13T13:50:41.326Z,8.60
2019-03-13T13:53:12.511Z,8.40
2019-03-13T13:55:47.197Z,8.60
2019-03-13T13:58:18.045Z,8.40
2019-03-13T14:00:48.602Z,8.40
2019-03-13T14:03:19.402Z,8.30
2019-03-13T14:05:50.293Z,8.30
2019-03-13T14:08:20.759Z,8.30
2019-03-13T14:10:51.750Z,8.10
2019-03-13T14:13:22.400Z,8.10
2019-03-13T14:15:53.337Z,8.20
2019-03-13T14:18:23.817Z,8.00
2019-03-13T14:20:54.772Z,8.00
2019-03-13T14:23:25.345Z,8.00
2019-03-13T14:25:59.198Z,8.00
2019-03-13T14:28:29.903Z,8.00
2019-03-13T14:31:00.799Z,8.00
2019-03-13T14:33:31.861Z,7.90
2019-03-13T14:36:02.801Z,8.00
2019-03-13T14:38:33.751Z,8.00
2019-03-13T14:41:04.501Z,7.90
2019-03-13T14:43:35.184Z,8.00
2019-03-13T14:46:08.212Z,8.00
2019-03-13T14:48:38.889Z,7.70
2019-03-13T14:51:09.607Z,7.50
2019-03-13T14:53:40.599Z,7.50
2019-03-13T14:56:11.226Z,7.50
2019-03-13T14:58:42.351Z,7.50
2019-03-13T15:01:16.354Z,7.50
2019-03-13T15:03:47.508Z,7.50
2019-03-13T15:06:19.809Z,7.60
2019-03-13T15:08:50.763Z,7.60
2019-03-13T15:11:21.534Z,7.70
2019-03-13T15:13:52.057Z,7.60
2019-03-13T15:16:25.185Z,7.60
2019-03-13T15:18:56.133Z,7.60
2019-03-13T15:21:26.546Z,7.60
2019-03-13T15:23:57.509Z,7.50
2019-03-13T15:26:28.710Z,7.50
2019-03-13T15:28:59.689Z,7.50
2019-03-13T15:31:30.347Z,7.50
2019-03-13T15:34:01.164Z,7.10
2019-03-13T15:36:31.880Z,7.20
2019-03-13T15:39:02.853Z,7.40
2019-03-13T15:41:33.415Z,7.50
2019-03-13T15:44:04.402Z,7.40
2019-03-13T15:46:35.268Z,7.40
2019-03-13T15:49:05.712Z,7.40
2019-03-13T15:51:38.761Z,7.40
2019-03-13T15:54:12.249Z,7.40
2019-03-13T15:56:43.149Z,7.50
2019-03-13T15:59:14.356Z,7.50
2019-03-13T16:01:45.257Z,7.40
2019-03-13T16:04:16.124Z,7.50
2019-03-13T16:06:47.111Z,7.50
2019-03-13T16:09:18.440Z,7.50
2019-03-13T16:11:49.109Z,7.40
2019-03-13T16:14:20.243Z,7.40
2019-03-13T16:16:51.315Z,7.40
2019-03-13T16:19:22.144Z,7.60
2019-03-13T16:21:53.009Z,7.40
2019-03-13T16:24:23.556Z,7.50
2019-03-13T16:26:54.193Z,7.50
2019-03-13T16:29:25.073Z,7.50
2019-03-13T16:31:55.754Z,7.60
2019-03-13T16:34:26.346Z,7.50
2019-03-13T16:36:57.069Z,7.30
2019-03-13T16:39:30.444Z,7.30
2019-03-13T16:42:01.076Z,7.40
2019-03-13T16:44:33.413Z,7.30
2019-03-13T16:47:04.434Z,7.30
2019-03-13T16:49:35.171Z,7.30
2019-03-13T16:52:05.935Z,7.30
2019-03-13T16:54:36.902Z,7.30
2019-03-13T16:57:07.505Z,7.20
2019-03-13T16:59:38.138Z,7.20
2019-03-13T17:02:08.605Z,7.20
2019-03-13T17:04:41.631Z,7.10
2019-03-13T17:07:11.919Z,7.20
2019-03-13T17:09:42.190Z,7.10
2019-03-13T17:12:12.458Z,7.20
2019-03-13T17:14:42.701Z,7.20
2019-03-13T17:17:12.870Z,7.20
2019-03-13T17:19:43.109Z,7.10
2019-03-13T17:22:13.386Z,7.10
2019-03-13T17:24:43.550Z,7.20
2019-03-13T17:27:13.796Z,7.10
2019-03-13T17:29:44.175Z,7.10
2019-03-13T17:32:14.420Z,7.10
2019-03-13T17:34:44.725Z,7.20
2019-03-13T17:37:15.027Z,7.20
2019-03-13T17:39:45.234Z,7.10
2019-03-13T17:42:15.380Z,7.00
2019-03-13T17:44:48.079Z,7.10
2019-03-13T17:47:18.252Z,7.00
2019-03-13T17:49:48.410Z,7.10
2019-03-13T17:52:18.663Z,7.10
2019-03-13T17:54:49.005Z,7.00
2019-03-13T17:57:19.303Z,7.20
2019-03-13T17:59:51.848Z,7.20
2019-03-13T18:02:22.169Z,7.20
2019-03-13T18:04:52.480Z,7.10
2019-03-13T18:07:22.870Z,7.20
2019-03-13T18:09:53.249Z,7.10
2019-03-13T18:12:23.552Z,7.20
2019-03-13T18:14:53.770Z,7.20
2019-03-13T18:17:25.095Z,7.10
2019-03-13T18:19:55.429Z,7.00
2019-03-13T18:22:25.760Z,7.20
2019-03-13T18:24:56.439Z,7.00
2019-03-13T18:27:26.664Z,7.10
2019-03-13T18:29:56.927Z,6.90
2019-03-13T18:32:27.286Z,7.10
2019-03-13T18:34:57.698Z,7.10
2019-03-13T18:37:28.204Z,7.00
2019-03-13T18:39:58.604Z,7.00
2019-03-13T18:42:29.246Z,7.10
2019-03-13T18:44:59.717Z,7.10
2019-03-13T18:47:30.192Z,7.00
2019-03-13T18:50:00.671Z,7.00
2019-03-13T18:52:31.102Z,7.00
2019-03-13T18:55:01.505Z,7.00
2019-03-13T18:57:32.130Z,7.00
2019-03-13T19:00:04.055Z,6.80
2019-03-13T19:02:35.086Z,7.00
2019-03-13T19:05:07.139Z,7.00
2019-03-13T19:07:37.544Z,6.90
2019-03-13T19:10:08.762Z,7.00
2019-03-13T19:12:39.095Z,6.90
2019-03-13T19:15:13.970Z,6.90
2019-03-13T19:17:44.412Z,7.00
2019-03-13T19:20:16.263Z,7.00
2019-03-13T19:22:49.720Z,6.90
2019-03-13T19:25:20.655Z,6.90
2019-03-13T19:27:51.020Z,7.00
2019-03-13T19:30:25.963Z,7.10
2019-03-13T19:32:56.516Z,7.10
2019-03-13T19:35:26.988Z,7.10
2019-03-13T19:37:57.786Z,7.20
2019-03-13T19:40:28.124Z,7.30
2019-03-13T19:42:58.722Z,7.20
2019-03-13T19:45:33.298Z,7.30
2019-03-13T19:48:03.678Z,7.40
2019-03-13T19:50:34.176Z,7.40
2019-03-13T19:53:04.613Z,7.40
2019-03-13T19:55:35.071Z,7.50
2019-03-13T19:58:09.174Z,7.50
2019-03-13T20:00:40.916Z,7.40
2019-03-13T20:03:11.550Z,7.40
2019-03-13T20:05:45.811Z,7.40
2019-03-13T20:08:14.254Z,7.50
2019-03-13T20:10:46.411Z,7.50
2019-03-13T20:13:16.816Z,7.50
2019-03-13T20:15:47.588Z,7.60
2019-03-13T20:18:18.651Z,7.60
2019-03-13T20:20:49.146Z,7.70
2019-03-13T20:23:22.962Z,7.70
2019-03-13T20:25:53.335Z,7.60
2019-03-13T20:28:23.802Z,7.70
2019-03-13T20:30:54.377Z,7.80
2019-03-13T20:33:24.790Z,7.80
2019-03-13T20:35:55.615Z,7.70
2019-03-13T20:38:26.530Z,7.80
2019-03-13T20:40:57.160Z,7.70
2019-03-13T20:43:27.527Z,7.80
2019-03-13T20:45:57.907Z,7.80
2019-03-13T20:48:28.503Z,7.70
2019-03-13T20:50:59.294Z,7.80
2019-03-13T20:53:29.822Z,7.80
2019-03-13T20:56:01.866Z,7.80
2019-03-13T20:58:32.294Z,7.80
2019-03-13T21:01:04.369Z,7.90
2019-03-13T21:03:34.986Z,7.90
2019-03-13T21:06:06.602Z,7.80
2019-03-13T21:08:36.933Z,7.70
2019-03-13T21:11:07.525Z,7.80
2019-03-13T21:13:39.597Z,7.90
2019-03-13T21:16:09.999Z,7.80
2019-03-13T21:18:40.395Z,7.70
2019-03-13T21:21:11.218Z,7.70
2019-03-13T21:23:41.871Z,7.70
2019-03-13T21:26:12.429Z,7.70
2019-03-13T21:28:42.737Z,7.70
2019-03-13T21:31:13.103Z,7.70
2019-03-13T21:33:43.580Z,7.60
2019-03-13T21:36:14.083Z,7.70
2019-03-13T21:38:44.551Z,7.50
2019-03-13T21:41:15.099Z,7.70
2019-03-13T21:43:45.686Z,7.70
2019-03-13T21:46:16.665Z,7.70
2019-03-13T21:48:47.069Z,7.80
2019-03-13T21:51:17.372Z,7.80
2019-03-13T21:53:47.866Z,7.80
2019-03-13T21:56:18.227Z,7.60
2019-03-13T21:58:48.622Z,7.70
2019-03-13T22:01:20.393Z,7.70
2019-03-13T22:03:51.281Z,7.60
2019-03-13T22:06:28.625Z,7.60
2019-03-13T22:08:53.504Z,7.60
2019-03-13T22:11:23.811Z,7.60
2019-03-13T22:13:54.156Z,7.60
2019-03-13T22:16:24.580Z,7.70
2019-03-13T22:18:54.846Z,7.60
2019-03-13T22:21:25.189Z,7.60
2019-03-13T22:23:56.440Z,7.70
2019-03-13T22:26:26.735Z,7.50
2019-03-13T22:28:57.083Z,7.60
2019-03-13T22:31:27.239Z,7.70
2019-03-13T22:33:57.562Z,7.70
2019-03-13T22:36:28.078Z,7.60
2019-03-13T22:38:58.514Z,7.70
2019-03-13T22:41:29.180Z,7.80
2019-03-13T22:43:59.766Z,7.70
2019-03-13T22:46:30.169Z,7.60
2019-03-13T22:49:02.761Z,7.70
2019-03-13T22:51:35.632Z,7.70
2019-03-13T22:54:09.638Z,7.80
2019-03-13T22:56:39.997Z,7.60
2019-03-13T22:59:10.417Z,7.60
2019-03-13T23:01:42.969Z,7.70
2019-03-13T23:04:13.898Z,7.80
2019-03-13T23:06:44.583Z,7.90
2019-03-13T23:09:14.960Z,7.90
2019-03-13T23:11:45.291Z,7.90
2019-03-13T23:14:15.672Z,7.90
2019-03-13T23:16:46.025Z,7.70
2019-03-13T23:19:17.617Z,7.80
2019-03-13T23:21:48.278Z,7.80
2019-03-13T23:24:18.819Z,7.90
2019-03-13T23:26:49.075Z,7.80
2019-03-13T23:29:19.373Z,7.70
2019-03-13T23:31:53.121Z,7.80
2019-03-13T23:34:23.539Z,7.70
2019-03-13T23:36:54.963Z,7.60
2019-03-13T23:39:25.398Z,7.70
2019-03-13T23:41:56.866Z,7.70
2019-03-13T23:44:27.439Z,7.60
2019-03-13T23:46:57.886Z,7.50
2019-03-13T23:49:28.386Z,7.50
2019-03-13T23:51:59.059Z,7.60
2019-03-13T23:54:29.391Z,7.60
2019-03-13T23:57:01.325Z,7.60
2019-03-13T23:59:31.797Z,7.60
